Time;durP1;ratioP1;P1;durP2;ratioP2;P2;SDS_P1;SDS_P2;PMS_P1;PMS_P2;Temp;Humidity;BMP_temperature;BMP_pressure;BME280_temperature;BME280_humidity;BME280_pressure;Samples;Min_cycle;Max_cycle;Signal;HPM_P1;HPM_P2
2023/11/06 00:00:52;;;;;;;11.63;4.03;;;8.60;99.90;;;;;;5080465;28;20128;-80
2023/11/06 00:03:18;;;;;;;10.25;4.13;;;8.60;99.90;;;;;;5083849;28;20106;-80
2023/11/06 00:05:44;;;;;;;11.05;4.85;;;8.60;99.90;;;;;;5092575;28;20043;-81
2023/11/06 00:08:09;;;;;;;14.75;4.80;;;8.70;99.90;;;;;;5066423;28;20040;-82
2023/11/06 00:10:35;;;;;;;12.65;4.93;;;8.70;99.90;;;;;;5066472;28;20036;-81
2023/11/06 00:13:03;;;;;;;10.15;4.65;;;8.70;99.90;;;;;;5081136;28;20048;-81
2023/11/06 00:15:29;;;;;;;8.32;3.47;;;8.70;99.90;;;;;;5065764;28;20036;-81
2023/11/06 00:17:58;;;;;;;8.05;3.47;;;8.70;99.90;;;;;;5084462;28;20048;-82
2023/11/06 00:20:24;;;;;;;11.40;3.65;;;8.80;99.90;;;;;;5084002;28;20096;-81
2023/11/06 00:22:49;;;;;;;8.95;3.60;;;8.80;99.90;;;;;;5085019;28;20044;-81
2023/11/06 00:25:15;;;;;;;8.82;3.53;;;8.80;99.90;;;;;;5068075;28;20036;-81
2023/11/06 00:27:41;;;;;;;8.63;3.78;;;8.80;99.90;;;;;;5066286;28;20036;-81
2023/11/06 00:30:07;;;;;;;10.15;4.38;;;8.80;99.90;;;;;;5082477;28;20039;-81
2023/11/06 00:32:36;;;;;;;7.15;3.47;;;8.80;99.90;;;;;;5078858;28;20044;-81
2023/11/06 00:35:03;;;;;;;9.25;4.28;;;8.80;99.90;;;;;;5097065;27;20040;-81
2023/11/06 00:37:29;;;;;;;9.90;4.18;;;8.80;99.90;;;;;;5068083;28;20052;-81
2023/11/06 00:39:55;;;;;;;8.48;4.40;;;8.80;99.90;;;;;;5068988;28;20036;-81
2023/11/06 00:42:21;;;;;;;10.63;4.43;;;8.90;99.90;;;;;;5086117;28;20029;-81
2023/11/06 00:44:47;;;;;;;9.68;4.90;;;8.90;99.90;;;;;;5066578;28;20140;-81
2023/11/06 00:47:12;;;;;;;8.27;4.93;;;8.90;99.90;;;;;;5067028;28;20501;-80
2023/11/06 00:49:38;;;;;;;13.20;5.65;;;9.00;99.90;;;;;;5065053;28;21339;-81
2023/11/06 00:52:04;;;;;;;13.68;5.80;;;9.00;99.90;;;;;;5081509;28;20082;-81
2023/11/06 00:54:30;;;;;;;12.25;5.50;;;9.00;99.90;;;;;;5084619;28;20047;-81
2023/11/06 00:56:56;;;;;;;10.50;6.15;;;9.00;99.90;;;;;;5065969;28;20047;-81
2023/11/06 00:59:22;;;;;;;11.93;6.80;;;9.00;99.90;;;;;;5061355;28;20368;-81
2023/11/06 01:01:48;;;;;;;10.38;6.38;;;9.10;99.90;;;;;;5068284;28;20051;-81
2023/11/06 01:04:13;;;;;;;11.52;6.55;;;9.10;99.90;;;;;;5064131;28;20047;-81
2023/11/06 01:06:39;;;;;;;11.65;6.50;;;9.10;99.90;;;;;;5075760;28;20050;-82
2023/11/06 01:09:07;;;;;;;11.00;6.60;;;9.10;99.90;;;;;;5084206;28;20040;-81
2023/11/06 01:11:33;;;;;;;12.07;6.03;;;9.10;99.90;;;;;;5063821;28;20043;-82
2023/11/06 01:13:58;;;;;;;16.30;7.05;;;9.10;99.90;;;;;;5082863;28;20044;-81
2023/11/06 01:16:24;;;;;;;11.98;6.85;;;9.10;99.90;;;;;;5080194;28;20036;-82
2023/11/06 01:18:50;;;;;;;8.95;5.53;;;9.10;99.90;;;;;;5066298;28;20087;-81
2023/11/06 01:21:16;;;;;;;9.10;6.18;;;9.10;99.90;;;;;;5067521;28;20504;-82
2023/11/06 01:23:41;;;;;;;10.63;5.68;;;9.20;99.90;;;;;;5068937;28;20049;-82
2023/11/06 01:26:07;;;;;;;7.40;4.13;;;9.20;99.90;;;;;;5080071;28;20045;-82
2023/11/06 01:28:33;;;;;;;9.32;4.15;;;9.10;99.90;;;;;;5078238;28;20051;-82
2023/11/06 01:30:59;;;;;;;10.88;4.63;;;9.20;99.90;;;;;;5067707;28;20067;-82
2023/11/06 01:33:25;;;;;;;8.90;4.90;;;9.20;99.90;;;;;;5059699;28;20137;-82
2023/11/06 01:35:51;;;;;;;9.60;4.50;;;9.20;99.90;;;;;;5083888;28;20044;-82
2023/11/06 01:38:16;;;;;;;10.00;4.95;;;9.20;99.90;;;;;;5078165;28;20036;-82
2023/11/06 01:40:42;;;;;;;12.02;7.18;;;9.10;99.90;;;;;;5079292;28;20043;-82
2023/11/06 01:43:08;;;;;;;14.55;7.90;;;9.10;99.90;;;;;;5079803;28;20047;-82
2023/11/06 01:45:35;;;;;;;11.80;8.15;;;9.10;99.90;;;;;;5067448;28;20093;-81
2023/11/06 01:48:05;;;;;;;13.55;9.30;;;9.10;99.90;;;;;;5064354;28;20486;-82
2023/11/06 01:50:33;;;;;;;15.68;9.85;;;9.10;99.90;;;;;;5072815;28;20051;-82
2023/11/06 01:53:06;;;;;;;22.00;11.43;;;9.10;99.90;;;;;;5075203;28;20047;-83
2023/11/06 01:55:33;;;;;;;17.13;12.30;;;9.10;99.90;;;;;;5097217;27;20919;-82
2023/11/06 01:57:58;;;;;;;17.00;12.25;;;9.10;99.90;;;;;;5084917;28;20068;-81
2023/11/06 02:00:26;;;;;;;16.92;12.55;;;9.10;99.90;;;;;;5077434;28;20506;-83
2023/11/06 02:02:52;;;;;;;16.25;13.10;;;9.10;99.90;;;;;;5083076;28;20161;-82
2023/11/06 02:05:18;;;;;;;17.45;12.88;;;9.10;99.90;;;;;;5063801;28;20485;-83
2023/11/06 02:07:47;;;;;;;17.55;13.02;;;9.20;99.90;;;;;;5079650;28;20036;-82
2023/11/06 02:10:17;;;;;;;18.85;14.05;;;9.20;99.90;;;;;;5062564;28;20098;-84
2023/11/06 02:12:44;;;;;;;18.85;13.88;;;9.20;99.90;;;;;;5079751;28;20470;-83
2023/11/06 02:15:13;;;;;;;20.95;14.07;;;9.20;99.90;;;;;;5064701;28;20261;-83
2023/11/06 02:17:41;;;;;;;16.70;14.68;;;9.30;99.90;;;;;;5067078;28;20054;-83
2023/11/06 02:20:09;;;;;;;21.83;14.90;;;9.20;99.90;;;;;;5079038;28;20102;-83
2023/11/06 02:22:39;;;;;;;20.02;14.55;;;9.30;99.90;;;;;;5074518;28;20036;-83
2023/11/06 02:25:05;;;;;;;22.48;15.52;;;9.20;99.90;;;;;;5082955;28;20048;-81
2023/11/06 02:27:31;;;;;;;18.45;14.63;;;9.20;99.90;;;;;;5056645;28;20085;-83
2023/11/06 02:29:57;;;;;;;18.38;14.30;;;9.20;99.90;;;;;;5075826;28;20424;-83
2023/11/06 02:32:22;;;;;;;18.48;13.35;;;9.20;99.90;;;;;;5079895;28;20040;-82
2023/11/06 02:34:48;;;;;;;17.35;13.75;;;9.20;99.90;;;;;;5059966;28;20044;-83
2023/11/06 02:37:14;;;;;;;19.95;14.73;;;9.20;99.90;;;;;;5089626;28;20106;-81
2023/11/06 02:39:40;;;;;;;18.08;13.80;;;9.20;99.90;;;;;;5079894;28;20028;-82
2023/11/06 02:42:06;;;;;;;19.85;14.27;;;9.20;99.90;;;;;;5065970;28;20047;-82
2023/11/06 02:44:32;;;;;;;20.13;14.25;;;9.20;99.90;;;;;;5066345;28;20078;-81
2023/11/06 02:46:58;;;;;;;17.45;13.70;;;9.20;99.90;;;;;;5078770;28;20047;-82
2023/11/06 02:49:24;;;;;;;16.70;13.63;;;9.20;99.90;;;;;;5071853;28;20036;-82
2023/11/06 02:51:51;;;;;;;22.05;15.65;;;9.20;99.90;;;;;;5076552;28;20039;-82
2023/11/06 02:54:24;;;;;;;19.58;15.75;;;9.20;99.90;;;;;;5082573;28;20105;-81
2023/11/06 02:56:51;;;;;;;16.90;15.10;;;9.30;99.90;;;;;;5081021;28;20619;-82
2023/11/06 02:59:17;;;;;;;19.90;14.05;;;9.30;99.90;;;;;;5066878;28;20047;-82
2023/11/06 03:01:42;;;;;;;19.77;13.07;;;9.30;99.90;;;;;;5075683;28;20043;-82
2023/11/06 03:04:12;;;;;;;22.25;13.30;;;9.20;99.90;;;;;;5055044;28;20435;-83
2023/11/06 03:06:40;;;;;;;19.25;13.07;;;9.30;99.90;;;;;;5070758;28;20670;-82
2023/11/06 03:09:06;;;;;;;14.50;11.63;;;9.20;99.90;;;;;;5067232;28;20044;-82
2023/11/06 03:11:32;;;;;;;17.52;11.93;;;9.20;99.90;;;;;;5074737;28;20052;-82
2023/11/06 03:13:58;;;;;;;19.15;12.18;;;9.10;99.90;;;;;;5076419;28;20056;-83
2023/11/06 03:16:23;;;;;;;19.63;13.57;;;9.20;99.90;;;;;;5087587;28;20500;-82
2023/11/06 03:18:49;;;;;;;22.98;16.05;;;9.20;99.90;;;;;;5092742;28;20063;-82
2023/11/06 03:21:15;;;;;;;20.15;15.43;;;9.20;99.90;;;;;;5062621;28;20037;-82
2023/11/06 03:23:41;;;;;;;26.85;16.80;;;9.20;99.90;;;;;;5077031;28;20040;-82
2023/11/06 03:26:07;;;;;;;20.75;16.05;;;9.30;99.90;;;;;;5064876;28;20044;-82
2023/11/06 03:28:34;;;;;;;26.08;16.85;;;9.30;99.90;;;;;;5077529;28;20044;-81
2023/11/06 03:30:59;;;;;;;19.85;15.63;;;9.30;99.90;;;;;;5075051;28;20051;-82
2023/11/06 03:33:26;;;;;;;22.17;15.27;;;9.30;99.90;;;;;;5083039;28;20044;-76
2023/11/06 03:35:52;;;;;;;20.40;15.98;;;9.30;99.90;;;;;;5083762;28;20043;-76
2023/11/06 03:38:17;;;;;;;22.88;16.63;;;9.30;99.90;;;;;;5075093;28;20044;-76
2023/11/06 03:40:43;;;;;;;18.35;13.98;;;9.30;99.90;;;;;;5051698;28;20182;-76
2023/11/06 03:43:09;;;;;;;16.77;13.60;;;9.30;99.90;;;;;;5076021;28;20041;-76
2023/11/06 03:45:35;;;;;;;21.98;15.10;;;9.30;99.90;;;;;;5069937;28;20044;-76
2023/11/06 03:48:00;;;;;;;18.60;14.27;;;9.40;99.90;;;;;;5060470;28;20048;-82
2023/11/06 03:50:26;;;;;;;16.58;14.40;;;9.40;99.90;;;;;;5067982;28;20079;-81
2023/11/06 03:52:52;;;;;;;16.70;12.85;;;9.40;99.90;;;;;;5079004;28;20068;-82
2023/11/06 03:55:18;;;;;;;17.30;13.18;;;9.40;99.90;;;;;;5074277;28;20049;-82
2023/11/06 03:57:44;;;;;;;14.77;13.23;;;9.40;99.90;;;;;;5081699;28;20040;-82
2023/11/06 04:00:11;;;;;;;16.42;13.05;;;9.40;99.90;;;;;;5075503;28;20048;-82
2023/11/06 04:02:37;;;;;;;16.85;15.05;;;9.40;99.90;;;;;;5083713;28;20051;-82
2023/11/06 04:05:03;;;;;;;19.05;14.05;;;9.40;99.90;;;;;;5079480;28;20438;-82
2023/11/06 04:07:29;;;;;;;16.63;12.35;;;9.40;99.90;;;;;;5063387;28;20040;-83
2023/11/06 04:09:57;;;;;;;16.77;12.88;;;9.40;99.90;;;;;;5074827;28;20044;-82
2023/11/06 04:12:23;;;;;;;16.45;12.48;;;9.40;99.90;;;;;;5074437;28;20045;-82
2023/11/06 04:14:49;;;;;;;16.83;12.57;;;9.40;99.90;;;;;;5095749;28;20102;-82
2023/11/06 04:17:15;;;;;;;18.40;13.85;;;9.40;99.90;;;;;;5091005;28;20035;-82
2023/11/06 04:19:41;;;;;;;15.48;12.70;;;9.30;99.90;;;;;;5052141;28;20047;-82
2023/11/06 04:22:07;;;;;;;15.70;12.75;;;9.30;99.90;;;;;;5100795;28;20052;-83
2023/11/06 04:24:34;;;;;;;16.08;11.45;;;9.30;99.90;;;;;;5053859;28;20047;-82
2023/11/06 04:27:00;;;;;;;16.88;11.90;;;9.20;99.90;;;;;;5092347;28;20040;-82
2023/11/06 04:29:26;;;;;;;16.25;12.10;;;9.20;99.90;;;;;;5073662;28;20622;-82
2023/11/06 04:31:52;;;;;;;14.40;11.55;;;9.20;99.90;;;;;;5085506;28;20128;-81
2023/11/06 04:34:17;;;;;;;17.38;12.60;;;9.20;99.90;;;;;;5074311;28;20687;-82
2023/11/06 04:36:43;;;;;;;16.08;13.02;;;9.30;99.90;;;;;;5086294;28;20548;-82
2023/11/06 04:39:12;;;;;;;16.48;14.65;;;9.30;99.90;;;;;;5073365;28;20040;-82
2023/11/06 04:41:38;;;;;;;19.38;15.48;;;9.30;99.90;;;;;;5066013;28;20128;-82
2023/11/06 04:44:05;;;;;;;17.40;15.63;;;9.30;99.90;;;;;;5054504;28;20132;-82
2023/11/06 04:46:31;;;;;;;18.50;15.95;;;9.30;99.90;;;;;;5074432;28;20482;-82
2023/11/06 04:48:57;;;;;;;27.02;18.38;;;9.30;99.90;;;;;;5079471;28;20051;-82
2023/11/06 04:51:23;;;;;;;20.38;18.33;;;9.40;99.90;;;;;;5084762;28;20380;-81
2023/11/06 04:53:48;;;;;;;19.92;17.52;;;9.40;99.90;;;;;;5069820;28;20050;-80
2023/11/06 04:56:14;;;;;;;24.00;18.95;;;9.30;99.90;;;;;;5065993;28;20440;-82
2023/11/06 04:58:41;;;;;;;28.33;18.95;;;9.40;99.90;;;;;;5072865;28;20045;-82
2023/11/06 05:01:07;;;;;;;22.60;19.05;;;9.30;99.90;;;;;;5086243;28;20044;-82
2023/11/06 05:03:34;;;;;;;25.00;19.42;;;9.40;99.90;;;;;;5073134;28;20051;-83
2023/11/06 05:06:00;;;;;;;30.30;21.30;;;9.40;99.90;;;;;;5077633;28;20122;-82
2023/11/06 05:08:29;;;;;;;25.80;19.92;;;9.40;99.90;;;;;;5083055;28;20139;-83
2023/11/06 05:10:55;;;;;;;26.70;20.15;;;9.40;99.90;;;;;;5072383;28;20545;-82
2023/11/06 05:13:22;;;;;;;22.35;19.75;;;9.40;99.90;;;;;;5087360;28;20083;-83
2023/11/06 05:15:48;;;;;;;24.70;20.23;;;9.40;99.90;;;;;;5097648;28;20036;-82
2023/11/06 05:18:14;;;;;;;24.98;20.55;;;9.40;99.90;;;;;;5083278;28;20064;-83
2023/11/06 05:20:43;;;;;;;21.80;19.60;;;9.50;99.90;;;;;;5074827;28;20038;-82
2023/11/06 05:23:09;;;;;;;22.20;19.27;;;9.40;99.90;;;;;;5074757;28;20059;-82
2023/11/06 05:25:36;;;;;;;26.58;19.63;;;9.40;99.90;;;;;;5063403;28;20512;-82
2023/11/06 05:28:02;;;;;;;23.58;20.17;;;9.40;99.90;;;;;;5071812;28;20052;-82
2023/11/06 05:30:28;;;;;;;25.42;19.77;;;9.40;99.90;;;;;;5067090;28;20126;-82
2023/11/06 05:32:54;;;;;;;24.65;19.98;;;9.50;99.90;;;;;;5086462;28;20142;-82
2023/11/06 05:35:21;;;;;;;29.05;22.23;;;9.50;99.90;;;;;;5067079;28;20659;-82
2023/11/06 05:37:47;;;;;;;24.45;21.25;;;9.50;99.90;;;;;;5095661;28;20521;-82
2023/11/06 05:40:13;;;;;;;23.77;21.13;;;9.40;99.90;;;;;;5084253;28;20047;-82
2023/11/06 05:42:39;;;;;;;26.60;21.25;;;9.40;99.90;;;;;;5073277;28;20049;-82
2023/11/06 05:45:06;;;;;;;29.45;21.50;;;9.50;99.90;;;;;;5097702;28;20035;-82
2023/11/06 05:47:33;;;;;;;26.73;20.27;;;9.40;99.90;;;;;;5079197;28;20049;-81
2023/11/06 05:49:58;;;;;;;28.92;21.13;;;9.40;99.90;;;;;;5067097;28;20086;-82
2023/11/06 05:52:24;;;;;;;23.42;19.92;;;9.50;99.90;;;;;;5092761;27;20461;-82
2023/11/06 05:54:50;;;;;;;22.40;19.40;;;9.40;99.90;;;;;;5058222;28;20044;-81
2023/11/06 05:57:16;;;;;;;23.05;20.27;;;9.50;99.90;;;;;;5082073;28;20056;-82
2023/11/06 05:59:42;;;;;;;24.15;19.08;;;9.50;99.90;;;;;;5066140;28;20038;-83
2023/11/06 06:02:11;;;;;;;30.08;19.23;;;9.50;99.90;;;;;;5088351;28;20444;-83
2023/11/06 06:04:38;;;;;;;23.45;19.75;;;9.50;99.90;;;;;;5068202;28;20047;-82
2023/11/06 06:07:05;;;;;;;23.42;20.25;;;9.50;99.90;;;;;;5082343;28;20399;-82
2023/11/06 06:09:32;;;;;;;25.35;20.50;;;9.50;99.90;;;;;;5067587;28;20575;-83
2023/11/06 06:12:01;;;;;;;24.45;20.17;;;9.50;99.90;;;;;;5067459;28;20251;-81
2023/11/06 06:14:27;;;;;;;22.42;20.02;;;9.50;99.90;;;;;;5084174;28;20129;-81
2023/11/06 06:16:53;;;;;;;22.63;18.50;;;9.50;99.90;;;;;;5077869;28;20110;-82
2023/11/06 06:19:19;;;;;;;19.85;17.85;;;9.50;99.90;;;;;;5080343;28;20463;-82
2023/11/06 06:21:45;;;;;;;21.33;18.67;;;9.50;99.90;;;;;;5064608;28;20101;-82
2023/11/06 06:24:12;;;;;;;20.67;18.38;;;9.50;99.90;;;;;;5067275;28;20066;-83
2023/11/06 06:26:38;;;;;;;21.70;18.63;;;9.50;99.90;;;;;;5074908;28;20457;-83
2023/11/06 06:29:04;;;;;;;25.63;19.17;;;9.50;99.90;;;;;;5076163;28;20184;-82
2023/11/06 06:31:30;;;;;;;24.67;17.70;;;9.50;99.90;;;;;;5065137;28;20040;-82
2023/11/06 06:33:56;;;;;;;23.95;20.08;;;9.50;99.90;;;;;;5092337;28;20052;-83
2023/11/06 06:36:25;;;;;;;21.90;17.92;;;9.40;99.90;;;;;;5064858;28;20047;-82
2023/11/06 06:38:53;;;;;;;22.20;18.40;;;9.40;99.90;;;;;;5097453;27;20043;-83
2023/11/06 06:41:19;;;;;;;20.13;16.67;;;9.40;99.90;;;;;;5076417;28;20040;-82
2023/11/06 06:43:45;;;;;;;21.95;18.35;;;9.40;99.90;;;;;;5079859;28;20123;-82
2023/11/06 06:46:11;;;;;;;20.02;17.98;;;9.40;99.90;;;;;;5073090;28;20037;-82
2023/11/06 06:48:36;;;;;;;19.85;17.85;;;9.40;99.90;;;;;;5066873;28;20044;-82
2023/11/06 06:51:02;;;;;;;19.35;16.80;;;9.40;99.90;;;;;;5079486;28;20048;-82
2023/11/06 06:53:28;;;;;;;20.17;15.48;;;9.40;99.90;;;;;;5075200;28;20138;-83
2023/11/06 06:55:57;;;;;;;20.88;17.02;;;9.40;99.90;;;;;;5062904;28;20134;-83
2023/11/06 06:58:23;;;;;;;19.55;14.80;;;9.40;99.90;;;;;;5075230;28;20036;-84
2023/11/06 07:00:49;;;;;;;17.52;14.48;;;9.40;99.90;;;;;;5082646;28;20131;-84
2023/11/06 07:03:15;;;;;;;17.10;12.35;;;9.30;99.90;;;;;;5064008;28;20123;-83
2023/11/06 07:05:41;;;;;;;15.02;11.02;;;9.30;99.90;;;;;;5084137;28;20039;-84
2023/11/06 07:08:07;;;;;;;15.45;9.80;;;9.30;99.90;;;;;;5079268;28;20052;-84
2023/11/06 07:10:33;;;;;;;15.10;8.95;;;9.30;99.90;;;;;;5064663;28;20056;-84
2023/11/06 07:12:59;;;;;;;11.48;8.88;;;9.30;99.90;;;;;;5059892;28;20135;-83
2023/11/06 07:15:28;;;;;;;15.07;9.52;;;9.30;99.90;;;;;;5073306;28;20119;-83
2023/11/06 07:17:54;;;;;;;18.17;10.35;;;9.20;99.90;;;;;;5062015;28;20071;-80
2023/11/06 07:20:20;;;;;;;16.85;12.45;;;9.30;99.90;;;;;;5078375;28;20108;-81
2023/11/06 07:22:45;;;;;;;17.67;12.75;;;9.20;99.90;;;;;;5081366;28;20040;-82
2023/11/06 07:25:11;;;;;;;19.00;13.02;;;9.20;99.90;;;;;;5065154;28;20032;-82
2023/11/06 07:27:37;;;;;;;14.82;13.32;;;9.20;99.90;;;;;;5083254;28;20444;-82
2023/11/06 07:30:07;;;;;;;18.23;14.27;;;9.20;99.90;;;;;;5078088;28;20062;-84
2023/11/06 07:32:33;;;;;;;16.50;13.30;;;9.20;99.90;;;;;;5082616;28;20044;-83
2023/11/06 07:34:59;;;;;;;17.05;15.25;;;9.10;99.90;;;;;;5083340;28;20058;-83
2023/11/06 07:37:25;;;;;;;21.55;15.63;;;9.10;99.90;;;;;;5082144;28;20048;-82
2023/11/06 07:39:51;;;;;;;18.30;15.35;;;9.10;99.90;;;;;;5081120;28;20047;-81
2023/11/06 07:42:16;;;;;;;21.90;14.40;;;9.10;99.90;;;;;;5081749;28;20141;-82
2023/11/06 07:44:42;;;;;;;15.82;12.18;;;9.10;99.90;;;;;;5085549;28;20047;-80
2023/11/06 07:47:08;;;;;;;18.30;12.48;;;9.10;99.90;;;;;;5080316;28;20460;-80
2023/11/06 07:49:43;;;;;;;15.10;10.80;;;9.10;99.90;;;;;;5067993;28;20032;-81
2023/11/06 07:52:10;;;;;;;13.95;11.75;;;9.10;99.90;;;;;;5084218;28;20393;-81
2023/11/06 07:54:40;;;;;;;16.13;12.20;;;9.10;99.90;;;;;;5070387;28;20036;-79
2023/11/06 07:57:06;;;;;;;17.83;12.82;;;9.20;99.90;;;;;;5082318;28;20040;-81
2023/11/06 07:59:32;;;;;;;17.65;11.00;;;9.20;99.90;;;;;;5067369;28;20053;-81
2023/11/06 08:01:59;;;;;;;14.05;9.88;;;9.20;99.90;;;;;;5067683;28;20071;-80
2023/11/06 08:04:25;;;;;;;13.15;9.07;;;9.20;99.90;;;;;;5083446;28;20051;-82
2023/11/06 08:06:51;;;;;;;17.58;11.07;;;9.20;99.90;;;;;;5081363;28;20056;-81
2023/11/06 08:09:17;;;;;;;14.15;10.05;;;9.30;99.90;;;;;;5065444;28;20051;-81
2023/11/06 08:11:43;;;;;;;13.50;8.63;;;9.30;99.90;;;;;;5082957;28;20036;-80
2023/11/06 08:14:09;;;;;;;15.98;8.88;;;9.30;99.90;;;;;;5068441;28;20052;-79
2023/11/06 08:16:37;;;;;;;13.23;8.20;;;9.30;99.90;;;;;;5105504;27;20401;-80
2023/11/06 08:19:06;;;;;;;13.55;7.40;;;9.30;99.90;;;;;;5064972;28;20033;-81
2023/11/06 08:21:32;;;;;;;13.90;7.85;;;9.30;99.90;;;;;;5069458;28;20048;-80
2023/11/06 08:24:00;;;;;;;15.18;7.90;;;9.40;99.90;;;;;;5083291;28;20514;-80
2023/11/06 08:26:25;;;;;;;15.68;7.60;;;9.40;99.90;;;;;;5070319;28;20035;-81
2023/11/06 08:28:51;;;;;;;12.00;7.00;;;9.30;99.90;;;;;;5068748;28;20109;-80
2023/11/06 08:31:17;;;;;;;13.93;6.82;;;9.30;99.90;;;;;;5099758;28;20035;-80
2023/11/06 08:33:43;;;;;;;17.83;6.90;;;9.40;99.90;;;;;;5083838;28;20063;-80
2023/11/06 08:36:09;;;;;;;11.85;7.40;;;9.40;99.90;;;;;;5098081;27;20066;-79
2023/11/06 08:38:35;;;;;;;14.48;7.32;;;9.40;99.90;;;;;;5080484;28;20051;-80
2023/11/06 08:41:02;;;;;;;9.18;6.18;;;9.40;99.90;;;;;;5086415;28;20044;-80
2023/11/06 08:43:28;;;;;;;11.73;6.53;;;9.50;99.90;;;;;;5079168;28;20143;-80
2023/11/06 08:45:56;;;;;;;13.70;7.57;;;9.50;99.90;;;;;;5079182;28;20373;-80
2023/11/06 08:48:21;;;;;;;10.95;6.30;;;9.50;99.90;;;;;;5070571;28;20067;-80
2023/11/06 08:50:49;;;;;;;10.13;6.32;;;9.60;99.90;;;;;;5066291;28;20518;-80
2023/11/06 08:53:14;;;;;;;12.65;7.50;;;9.60;99.90;;;;;;5055059;28;20040;-80
2023/11/06 08:55:40;;;;;;;12.13;6.93;;;9.60;99.90;;;;;;5081579;28;20069;-80
2023/11/06 08:58:15;;;;;;;12.70;7.03;;;9.60;99.90;;;;;;5066661;28;20040;-79
2023/11/06 09:00:44;;;;;;;11.55;6.20;;;9.60;99.90;;;;;;5068965;28;20036;-79
2023/11/06 09:03:13;;;;;;;11.73;6.73;;;9.60;99.90;;;;;;5069083;28;20043;-79
2023/11/06 09:05:40;;;;;;;10.55;6.22;;;9.60;99.90;;;;;;5067606;28;20069;-79
2023/11/06 09:08:06;;;;;;;10.38;6.60;;;9.60;99.90;;;;;;5082396;28;20052;-79
2023/11/06 09:10:32;;;;;;;10.30;5.18;;;9.70;99.90;;;;;;5063517;28;20051;-78
2023/11/06 09:13:00;;;;;;;9.98;5.93;;;9.70;99.90;;;;;;5067064;28;20079;-78
2023/11/06 09:15:26;;;;;;;9.93;5.78;;;9.60;99.90;;;;;;5082020;28;20135;-78
2023/11/06 09:17:53;;;;;;;13.88;6.65;;;9.70;99.90;;;;;;5064623;28;20054;-78
2023/11/06 09:20:19;;;;;;;13.40;5.70;;;9.70;99.90;;;;;;5069030;28;20479;-79
2023/11/06 09:22:46;;;;;;;13.18;5.13;;;9.70;99.90;;;;;;5062940;28;20140;-79
2023/11/06 09:25:13;;;;;;;11.40;4.97;;;9.70;99.90;;;;;;5066576;28;20043;-79
2023/11/06 09:27:42;;;;;;;11.45;5.38;;;9.80;99.90;;;;;;5068879;28;20048;-78
2023/11/06 09:30:09;;;;;;;8.50;4.60;;;9.80;99.90;;;;;;5078673;28;20174;-78
2023/11/06 09:32:35;;;;;;;10.73;4.82;;;9.80;99.90;;;;;;5082829;28;20032;-78
2023/11/06 09:35:03;;;;;;;10.25;4.13;;;9.90;99.90;;;;;;5063755;28;20068;-78
2023/11/06 09:37:30;;;;;;;12.65;5.13;;;9.90;99.90;;;;;;5067108;28;20044;-77
2023/11/06 09:39:56;;;;;;;9.18;4.10;;;10.00;99.90;;;;;;5080567;28;20062;-76
2023/11/06 09:42:22;;;;;;;13.45;3.75;;;10.00;99.90;;;;;;5066568;28;20040;-76
2023/11/06 09:44:48;;;;;;;9.20;3.80;;;10.10;99.90;;;;;;5066447;28;20581;-76
2023/11/06 09:47:15;;;;;;;8.48;3.22;;;10.20;99.90;;;;;;5066875;28;20044;-77
2023/11/06 09:50:10;;;;;;;10.45;3.17;;;10.20;99.90;;;;;;5080713;28;20521;-77
2023/11/06 09:52:37;;;;;;;9.23;3.67;;;10.20;99.90;;;;;;5082898;28;20055;-77
2023/11/06 09:55:06;;;;;;;8.45;3.20;;;10.20;99.90;;;;;;5077476;28;20056;-77
2023/11/06 09:57:34;;;;;;;9.32;2.95;;;10.30;99.90;;;;;;5065984;28;20309;-77
2023/11/06 10:00:04;;;;;;;9.18;2.80;;;10.30;99.90;;;;;;5063947;28;20044;-77
2023/11/06 10:02:30;;;;;;;7.60;2.20;;;10.30;99.90;;;;;;5065783;28;20043;-77
2023/11/06 10:04:55;;;;;;;8.02;2.65;;;10.30;99.90;;;;;;5081955;28;20044;-77
2023/11/06 10:07:45;;;;;;;6.25;2.78;;;10.40;99.90;;;;;;5079147;28;20054;-77
2023/11/06 10:10:16;;;;;;;8.57;2.70;;;10.40;99.90;;;;;;5065440;28;20040;-78
2023/11/06 10:12:42;;;;;;;9.13;2.50;;;10.40;99.90;;;;;;5082592;28;20047;-77
2023/11/06 10:15:11;;;;;;;9.02;2.63;;;10.40;99.90;;;;;;5069382;28;20228;-78
2023/11/06 10:17:38;;;;;;;8.57;2.28;;;10.40;99.90;;;;;;5082804;28;20040;-76
2023/11/06 10:20:08;;;;;;;10.20;2.90;;;10.40;99.90;;;;;;5084125;28;20051;-77
2023/11/06 10:22:35;;;;;;;7.90;3.03;;;10.40;99.90;;;;;;5064879;28;20044;-76
2023/11/06 10:25:01;;;;;;;6.43;2.13;;;10.40;99.90;;;;;;5063857;28;20282;-78
2023/11/06 10:27:33;;;;;;;6.75;2.35;;;10.40;99.90;;;;;;5064769;28;20109;-78
2023/11/06 10:30:05;;;;;;;9.50;2.45;;;10.50;99.90;;;;;;5062898;28;20049;-76
2023/11/06 10:32:31;;;;;;;8.52;2.40;;;10.50;99.90;;;;;;5081266;28;20071;-77
2023/11/06 10:35:24;;;;;;;9.68;2.30;;;10.50;99.90;;;;;;5060327;28;20117;-77
2023/11/06 10:37:50;;;;;;;7.93;2.08;;;10.60;99.90;;;;;;5077140;28;20044;-77
2023/11/06 10:40:18;;;;;;;9.15;2.55;;;10.70;99.90;;;;;;5067592;28;20074;-79
2023/11/06 10:42:48;;;;;;;5.47;2.30;;;10.70;99.90;;;;;;5077600;28;20429;-78
2023/11/06 10:45:18;;;;;;;9.05;2.67;;;10.70;99.90;;;;;;5078963;28;20056;-77
2023/11/06 10:47:46;;;;;;;8.68;2.72;;;10.80;99.90;;;;;;5084386;28;20062;-77
2023/11/06 10:50:15;;;;;;;8.38;2.70;;;10.80;99.90;;;;;;5076398;28;20106;-78
2023/11/06 10:52:45;;;;;;;8.35;2.75;;;10.80;99.90;;;;;;5064451;28;20052;-77
2023/11/06 10:55:13;;;;;;;8.05;2.60;;;10.80;99.90;;;;;;5065517;28;20042;-78
2023/11/06 10:57:40;;;;;;;6.38;2.50;;;10.80;99.90;;;;;;5057373;28;20098;-77
2023/11/06 11:00:10;;;;;;;12.55;3.15;;;10.80;99.90;;;;;;5078057;28;20048;-76
2023/11/06 11:02:53;;;;;;;8.50;3.40;;;10.70;99.90;;;;;;5081278;28;20078;-76
2023/11/06 11:05:23;;;;;;;10.55;3.08;;;10.70;99.90;;;;;;5076627;28;20510;-77
2023/11/06 11:07:50;;;;;;;10.38;3.50;;;10.60;99.90;;;;;;5081421;28;20490;-77
2023/11/06 11:10:18;;;;;;;9.23;3.50;;;10.60;99.90;;;;;;5081819;28;20067;-76
2023/11/06 11:12:51;;;;;;;10.32;3.58;;;10.50;99.90;;;;;;5065013;28;20044;-76
2023/11/06 11:15:29;;;;;;;9.80;3.75;;;10.50;99.90;;;;;;5068485;28;20152;-76
2023/11/06 11:17:59;;;;;;;10.48;3.90;;;10.50;99.90;;;;;;5062885;28;20040;-76
2023/11/06 11:20:26;;;;;;;7.28;3.10;;;10.50;99.90;;;;;;5081032;28;20051;-77
2023/11/06 11:23:10;;;;;;;9.68;3.35;;;10.40;99.90;;;;;;5077949;28;20069;-78
2023/11/06 11:25:59;;;;;;;12.88;3.40;;;10.40;99.90;;;;;;5063147;28;20040;-77
2023/11/06 11:28:26;;;;;;;9.98;3.20;;;10.50;99.90;;;;;;5065431;28;20058;-78
2023/11/06 11:31:15;;;;;;;10.45;3.35;;;10.40;99.90;;;;;;5074782;28;20039;-77
2023/11/06 11:33:57;;;;;;;14.30;3.75;;;10.50;99.90;;;;;;5066810;28;20041;-78
2023/11/06 11:36:33;;;;;;;9.55;3.63;;;10.50;99.90;;;;;;5083425;28;20047;-77
2023/11/06 11:39:04;;;;;;;7.93;3.35;;;10.50;99.90;;;;;;5069568;28;20032;-77
2023/11/06 11:41:30;;;;;;;8.23;3.10;;;10.40;99.90;;;;;;5062646;28;20043;-77
2023/11/06 11:44:09;;;;;;;8.73;2.95;;;10.50;99.90;;;;;;5084851;28;20036;-77
2023/11/06 11:46:38;;;;;;;13.88;3.45;;;10.50;99.90;;;;;;5079288;28;20094;-78
2023/11/06 11:49:04;;;;;;;12.15;3.60;;;10.50;99.90;;;;;;5084144;28;20271;-77
2023/11/06 11:51:50;;;;;;;9.02;3.38;;;10.50;99.90;;;;;;5077681;28;20495;-77
2023/11/06 11:54:29;;;;;;;8.70;2.97;;;10.50;99.90;;;;;;5097958;28;20040;-78
2023/11/06 11:56:56;;;;;;;8.35;2.92;;;10.70;99.90;;;;;;5063784;28;20118;-76
2023/11/06 11:59:26;;;;;;;7.10;2.63;;;10.60;99.90;;;;;;5083917;28;20104;-78
2023/11/06 12:01:55;;;;;;;8.52;3.00;;;10.60;99.90;;;;;;5082723;28;20040;-77
2023/11/06 12:04:22;;;;;;;10.65;3.33;;;10.60;99.90;;;;;;5081464;28;20044;-77
2023/11/06 12:07:09;;;;;;;8.82;2.85;;;10.60;99.90;;;;;;5081598;28;20131;-76
2023/11/06 12:09:46;;;;;;;10.05;3.72;;;10.60;99.90;;;;;;5083004;28;20059;-77
2023/11/06 12:12:17;;;;;;;10.45;4.13;;;10.60;99.90;;;;;;5065071;28;20054;-77
2023/11/06 12:14:43;;;;;;;10.00;3.58;;;10.50;99.90;;;;;;5067586;28;20048;-79
2023/11/06 12:17:09;;;;;;;10.00;3.83;;;10.40;99.90;;;;;;5076705;28;20044;-80
2023/11/06 12:19:39;;;;;;;9.73;3.97;;;10.40;99.90;;;;;;5082179;28;20056;-81
2023/11/06 12:22:05;;;;;;;10.32;4.35;;;10.30;99.90;;;;;;5063159;28;20032;-80
2023/11/06 12:24:31;;;;;;;9.90;3.80;;;10.20;99.90;;;;;;5067803;28;20139;-80
2023/11/06 12:26:58;;;;;;;13.13;3.90;;;10.20;99.90;;;;;;5065117;28;20079;-80
2023/11/06 12:29:30;;;;;;;13.65;4.40;;;10.10;99.90;;;;;;5079353;28;20131;-80
2023/11/06 12:31:56;;;;;;;11.82;4.65;;;10.10;99.90;;;;;;5078939;28;20115;-79
2023/11/06 12:34:23;;;;;;;11.85;4.20;;;10.20;99.90;;;;;;5069676;28;20046;-80
2023/11/06 12:37:00;;;;;;;11.25;4.25;;;10.20;99.90;;;;;;5066371;28;20045;-79
2023/11/06 12:39:28;;;;;;;13.30;4.13;;;10.20;99.90;;;;;;5085888;28;20502;-78
2023/11/06 12:42:00;;;;;;;9.55;3.80;;;10.20;99.90;;;;;;5065046;28;20151;-77
2023/11/06 12:44:38;;;;;;;9.85;3.55;;;10.10;99.90;;;;;;5067587;28;20060;-79